Weather at Walters Ranch Landing Field [CLOSED]

Public forecast

Using degrees Fahrenheit for public forecast. Weather courtesy of forecast.io.

Closest aviation weather report (METAR) to Walters Ranch Landing Field

Closest report is Needles Airport, 8.8 nm (16.3 km) S. Retrieved 2021/07/24 22:56 UTC (25 minutes ago):

KEED 242256Z AUTO 21011G15KT 10SM CLR 36/17 A2988 RMK AO2 SLP081 T03610167

Closest aviation forecast (TAF) to Walters Ranch Landing Field

Closest forecast is Needles Airport, 8.8 nm (16.3 km) S. Retrieved 2021/07/24 18:22 UTC (5 hours ago):

TAF KEED 241720Z 2418/2518 19011G20KT P6SM SCT150 BKN250 FM250300 04011KT P6SM VCTS SCT120CB BKN250 TEMPO 2503/2506 04015G25KT FM250700 15008KT P6SM SCT120